Time;durP1;ratioP1;P1;durP2;ratioP2;P2;SDS_P1;SDS_P2;PMS_P1;PMS_P2;Temp;Humidity;BMP_temperature;BMP_pressure;BME280_temperature;BME280_humidity;BME280_pressure;Samples;Min_cycle;Max_cycle;Signal;HPM_P1;HPM_P2
2024/03/24 00:01:23;;;;;;;;;;;5.80;84.70;;;;;;5088279;28;19924;-61
2024/03/24 00:03:50;;;;;;;;;;;5.80;84.60;;;;;;5095025;28;20379;-60
2024/03/24 00:06:23;;;;;;;;;;;5.90;84.70;;;;;;5097830;28;19969;-60
2024/03/24 00:08:56;;;;;;;;;;;5.90;84.50;;;;;;5095214;28;19928;-62
2024/03/24 00:11:28;;;;;;;;;;;5.90;84.80;;;;;;5097553;28;19985;-62
2024/03/24 00:14:03;;;;;;;;;;;5.90;84.70;;;;;;5096286;28;20407;-61
2024/03/24 00:16:35;;;;;;;;;;;5.90;84.70;;;;;;5094802;28;20012;-61
2024/03/24 00:19:08;;;;;;;;;;;6.00;84.70;;;;;;5096709;28;20375;-61
2024/03/24 00:21:40;;;;;;;;;;;6.00;84.60;;;;;;5097603;28;20386;-62
2024/03/24 00:24:06;;;;;;;;;;;5.90;84.60;;;;;;5098690;28;19924;-60
2024/03/24 00:26:39;;;;;;;;;;;5.90;84.60;;;;;;5088240;28;20018;-61
2024/03/24 00:29:13;;;;;;;;;;;5.90;84.80;;;;;;5097608;28;19930;-61
2024/03/24 00:31:46;;;;;;;;;;;5.90;84.70;;;;;;5097016;28;19980;-60
2024/03/24 00:34:19;;;;;;;;;;;5.90;84.90;;;;;;5099742;28;19924;-74
2024/03/24 00:36:51;;;;;;;;;;;5.90;84.80;;;;;;5095414;28;19927;-73
2024/03/24 00:39:18;;;;;;;;;;;5.90;84.90;;;;;;5097218;28;19973;-73
2024/03/24 00:41:51;;;;;;;;;;;5.90;85.00;;;;;;5096103;28;19928;-73
2024/03/24 00:44:19;;;;;;;;;;;5.90;84.80;;;;;;5088171;28;20377;-75
2024/03/24 00:46:51;;;;;;;;;;;5.90;84.80;;;;;;5096491;28;19927;-72
2024/03/24 00:49:24;;;;;;;;;;;5.90;84.80;;;;;;5097764;28;19928;-73
2024/03/24 00:51:56;;;;;;;;;;;5.90;85.00;;;;;;5095776;28;19931;-74
2024/03/24 00:54:30;;;;;;;;;;;5.90;84.90;;;;;;5097212;28;20020;-75
2024/03/24 00:57:02;;;;;;;;;;;5.90;84.90;;;;;;5096296;28;20016;-75
2024/03/24 00:59:42;;;;;;;;;;;5.90;84.80;;;;;;5095207;28;20466;-74
2024/03/24 01:02:15;;;;;;;;;;;5.90;84.80;;;;;;5091752;28;20030;-73
2024/03/24 01:04:48;;;;;;;;;;;5.80;84.70;;;;;;5097481;28;20002;-73
2024/03/24 01:07:20;;;;;;;;;;;5.90;84.70;;;;;;5097796;28;19959;-74
2024/03/24 01:09:54;;;;;;;;;;;6.00;84.60;;;;;;5088474;28;19932;-73
2024/03/24 01:12:27;;;;;;;;;;;6.00;84.50;;;;;;5097013;28;20434;-74
2024/03/24 01:15:01;;;;;;;;;;;6.00;84.40;;;;;;5095112;28;19928;-74
2024/03/24 01:17:34;;;;;;;;;;;6.10;84.20;;;;;;5092275;28;19924;-72
2024/03/24 01:20:11;;;;;;;;;;;6.10;84.30;;;;;;5095596;28;19924;-73
2024/03/24 01:22:45;;;;;;;;;;;6.10;84.20;;;;;;5094894;28;19928;-74
2024/03/24 01:25:18;;;;;;;;;;;6.10;84.40;;;;;;5093784;28;19959;-73
2024/03/24 01:27:50;;;;;;;;;;;6.10;84.30;;;;;;5096032;28;19982;-74
2024/03/24 01:30:24;;;;;;;;;;;6.10;84.60;;;;;;5097118;28;19968;-75
2024/03/24 01:32:57;;;;;;;;;;;6.00;84.60;;;;;;5077890;28;19934;-74
2024/03/24 01:35:30;;;;;;;;;;;6.00;84.70;;;;;;5095955;28;19928;-72
2024/03/24 01:38:02;;;;;;;;;;;5.90;84.50;;;;;;5096210;28;19928;-73
2024/03/24 01:40:35;;;;;;;;;;;5.90;84.60;;;;;;5092260;28;19970;-73
2024/03/24 01:43:08;;;;;;;;;;;5.80;84.60;;;;;;5095525;28;20015;-58
2024/03/24 01:45:43;;;;;;;;;;;5.80;84.70;;;;;;5094086;28;20007;-58
2024/03/24 01:48:15;;;;;;;;;;;5.70;84.90;;;;;;5097428;28;19947;-57
2024/03/24 01:50:48;;;;;;;;;;;5.70;84.90;;;;;;5094553;28;19928;-57
2024/03/24 01:53:22;;;;;;;;;;;5.70;85.10;;;;;;5096613;28;19969;-58
2024/03/24 01:55:55;;;;;;;;;;;5.70;85.30;;;;;;5095030;28;19928;-59
2024/03/24 01:58:28;;;;;;;;;;;5.70;85.40;;;;;;5095227;28;20355;-58
2024/03/24 02:01:02;;;;;;;;;;;5.80;85.30;;;;;;5094909;28;20028;-59
2024/03/24 02:03:36;;;;;;;;;;;5.80;85.40;;;;;;5096468;28;19930;-58
2024/03/24 02:06:08;;;;;;;;;;;5.80;85.50;;;;;;5095977;28;19928;-60
2024/03/24 02:08:35;;;;;;;;;;;5.80;85.50;;;;;;5098541;28;19930;-59
2024/03/24 02:11:07;;;;;;;;;;;5.80;85.60;;;;;;5100243;28;19955;-57
2024/03/24 02:13:40;;;;;;;;;;;5.80;85.60;;;;;;5099843;28;20397;-58
2024/03/24 02:16:13;;;;;;;;;;;5.80;85.80;;;;;;5099439;28;19930;-58
2024/03/24 02:18:47;;;;;;;;;;;5.80;85.70;;;;;;5093790;28;20282;-58
2024/03/24 02:21:19;;;;;;;;;;;5.80;85.70;;;;;;5084564;28;19931;-58
2024/03/24 02:23:53;;;;;;;;;;;5.80;85.60;;;;;;5098835;28;20077;-57
2024/03/24 02:26:26;;;;;;;;;;;5.70;85.70;;;;;;5098928;28;19932;-59
2024/03/24 02:28:59;;;;;;;;;;;5.80;85.90;;;;;;5099968;28;19931;-58
2024/03/24 02:31:31;;;;;;;;;;;5.80;85.80;;;;;;5098632;28;19931;-58
2024/03/24 02:34:04;;;;;;;;;;;5.90;85.80;;;;;;5096672;28;19938;-58
2024/03/24 02:36:36;;;;;;;;;;;5.90;85.60;;;;;;5098529;28;19978;-59
2024/03/24 02:39:10;;;;;;;;;;;5.80;85.60;;;;;;5095181;28;19985;-58
2024/03/24 02:41:44;;;;;;;;;;;5.90;85.60;;;;;;5096716;28;19924;-58
2024/03/24 02:44:16;;;;;;;;;;;5.80;85.70;;;;;;5099695;28;19930;-58
2024/03/24 02:46:51;;;;;;;;;;;5.70;85.80;;;;;;5097509;28;19955;-59
2024/03/24 02:49:23;;;;;;;;;;;5.70;86.00;;;;;;5097571;28;19925;-58
2024/03/24 02:51:56;;;;;;;;;;;5.80;85.90;;;;;;5080098;28;19934;-65
2024/03/24 02:54:29;;;;;;;;;;;5.80;86.00;;;;;;5099055;28;19924;-61
2024/03/24 02:57:03;;;;;;;;;;;5.70;85.90;;;;;;5099168;28;20378;-61
2024/03/24 02:59:35;;;;;;;;;;;5.70;85.80;;;;;;5100555;28;19966;-61
2024/03/24 03:02:02;;;;;;;;;;;5.70;85.90;;;;;;5097438;28;19959;-60
2024/03/24 03:04:35;;;;;;;;;;;5.70;86.00;;;;;;5100083;28;19924;-61
2024/03/24 03:07:08;;;;;;;;;;;5.70;85.90;;;;;;5095677;28;19958;-61
2024/03/24 03:09:41;;;;;;;;;;;5.70;85.90;;;;;;5097359;28;19924;-60
2024/03/24 03:12:15;;;;;;;;;;;5.70;85.80;;;;;;5099308;28;20290;-61
2024/03/24 03:14:47;;;;;;;;;;;5.70;85.80;;;;;;5099016;28;19928;-61
2024/03/24 03:17:20;;;;;;;;;;;5.70;85.80;;;;;;5098577;28;19928;-61
2024/03/24 03:19:52;;;;;;;;;;;5.70;85.80;;;;;;5097879;28;19931;-61
2024/03/24 03:22:25;;;;;;;;;;;5.70;85.90;;;;;;5091670;28;19951;-61
2024/03/24 03:24:58;;;;;;;;;;;5.70;86.00;;;;;;5099882;28;19947;-61
2024/03/24 03:27:32;;;;;;;;;;;5.70;86.10;;;;;;5099085;28;19944;-61
2024/03/24 03:30:04;;;;;;;;;;;5.70;86.10;;;;;;5099339;28;20015;-60
2024/03/24 03:32:38;;;;;;;;;;;5.70;86.10;;;;;;5099591;28;19924;-62
2024/03/24 03:35:10;;;;;;;;;;;5.70;86.10;;;;;;5099968;28;19973;-62
2024/03/24 03:37:43;;;;;;;;;;;5.70;86.10;;;;;;5097108;28;20411;-63
2024/03/24 03:40:17;;;;;;;;;;;5.70;86.20;;;;;;5100418;28;19990;-62
2024/03/24 03:42:51;;;;;;;;;;;5.70;86.20;;;;;;5097292;28;19931;-62
2024/03/24 03:45:18;;;;;;;;;;;5.70;86.20;;;;;;5098369;28;20436;-61
2024/03/24 03:47:51;;;;;;;;;;;5.70;86.10;;;;;;5099306;28;20018;-61
2024/03/24 03:50:24;;;;;;;;;;;5.70;86.20;;;;;;5100139;28;19935;-61
2024/03/24 03:52:57;;;;;;;;;;;5.70;86.20;;;;;;5091416;28;20392;-60
2024/03/24 03:55:33;;;;;;;;;;;5.70;86.30;;;;;;5099580;28;19924;-62
2024/03/24 03:58:06;;;;;;;;;;;5.70;86.30;;;;;;5099783;28;19928;-61
2024/03/24 04:00:38;;;;;;;;;;;5.70;86.20;;;;;;5099353;28;19931;-61
2024/03/24 04:03:17;;;;;;;;;;;5.70;86.30;;;;;;5099167;28;19934;-64
2024/03/24 04:05:54;;;;;;;;;;;5.70;86.20;;;;;;5098934;28;19928;-64
2024/03/24 04:08:28;;;;;;;;;;;5.70;86.20;;;;;;5095339;28;19924;-64
2024/03/24 04:11:01;;;;;;;;;;;5.70;86.20;;;;;;5097235;28;19927;-64
2024/03/24 04:13:35;;;;;;;;;;;5.70;86.20;;;;;;5098951;28;19928;-65
2024/03/24 04:16:03;;;;;;;;;;;5.70;86.30;;;;;;5098065;28;19938;-64
2024/03/24 04:18:38;;;;;;;;;;;5.70;86.30;;;;;;5098540;28;19932;-63
2024/03/24 04:21:10;;;;;;;;;;;5.70;86.10;;;;;;5096832;28;19981;-64
2024/03/24 04:23:43;;;;;;;;;;;5.70;86.20;;;;;;5097776;28;19924;-65
2024/03/24 04:26:17;;;;;;;;;;;5.70;86.10;;;;;;5096694;28;20382;-63
2024/03/24 04:28:51;;;;;;;;;;;5.70;86.10;;;;;;5094971;28;19939;-62
2024/03/24 04:31:23;;;;;;;;;;;5.70;86.10;;;;;;5097073;28;20348;-63
2024/03/24 04:34:03;;;;;;;;;;;5.70;86.10;;;;;;5096942;28;20311;-63
2024/03/24 04:36:36;;;;;;;;;;;5.70;86.10;;;;;;5097760;28;19927;-65
2024/03/24 04:39:12;;;;;;;;;;;5.70;86.00;;;;;;5095685;28;20502;-63
2024/03/24 04:41:48;;;;;;;;;;;5.70;86.00;;;;;;5095255;28;19923;-64
2024/03/24 04:44:21;;;;;;;;;;;5.70;85.90;;;;;;5099527;28;20285;-63
2024/03/24 04:46:54;;;;;;;;;;;5.70;85.80;;;;;;5098172;28;20314;-64
2024/03/24 04:49:26;;;;;;;;;;;5.70;85.80;;;;;;5097515;28;20413;-63
2024/03/24 04:51:59;;;;;;;;;;;5.70;85.80;;;;;;5096052;28;19927;-65
2024/03/24 04:54:32;;;;;;;;;;;5.70;85.70;;;;;;5098996;28;19924;-63
2024/03/24 04:57:07;;;;;;;;;;;5.70;85.60;;;;;;5094655;28;19940;-65
2024/03/24 04:59:39;;;;;;;;;;;5.70;85.70;;;;;;5096648;28;19931;-63
2024/03/24 05:02:14;;;;;;;;;;;5.70;85.50;;;;;;5096085;28;19928;-65
2024/03/24 05:04:49;;;;;;;;;;;5.70;85.50;;;;;;5096731;28;19924;-65
2024/03/24 05:07:22;;;;;;;;;;;5.70;85.70;;;;;;5088633;28;20411;-64
2024/03/24 05:09:54;;;;;;;;;;;5.70;85.40;;;;;;5093407;28;20345;-65
2024/03/24 05:12:28;;;;;;;;;;;5.70;85.50;;;;;;5097435;28;20010;-60
2024/03/24 05:15:26;;;;;;;;;;;5.70;85.50;;;;;;5091175;28;19927;-58
2024/03/24 05:17:59;;;;;;;;;;;5.70;85.50;;;;;;5095692;28;19928;-61
2024/03/24 05:20:33;;;;;;;;;;;5.70;85.60;;;;;;5096695;28;19978;-59
2024/03/24 05:23:06;;;;;;;;;;;5.70;85.50;;;;;;5094735;28;19942;-59
2024/03/24 05:25:39;;;;;;;;;;;5.70;85.70;;;;;;5096704;28;20740;-60
2024/03/24 05:28:14;;;;;;;;;;;5.70;85.50;;;;;;5097255;28;20432;-59
2024/03/24 05:30:46;;;;;;;;;;;5.70;85.50;;;;;;5091280;28;19928;-59
2024/03/24 05:33:19;;;;;;;;;;;5.70;85.30;;;;;;5089381;28;19959;-60
2024/03/24 05:35:57;;;;;;;;;;;5.70;85.20;;;;;;5096275;28;20011;-59
2024/03/24 05:38:31;;;;;;;;;;;5.70;85.10;;;;;;5091229;28;19928;-61
2024/03/24 05:41:04;;;;;;;;;;;5.70;85.10;;;;;;5095050;28;20755;-61
2024/03/24 05:43:38;;;;;;;;;;;5.70;85.20;;;;;;5090809;28;20011;-58
2024/03/24 05:46:11;;;;;;;;;;;5.70;85.00;;;;;;5098192;28;19959;-59
2024/03/24 05:48:44;;;;;;;;;;;5.70;85.00;;;;;;5097602;28;19933;-60
2024/03/24 05:51:16;;;;;;;;;;;5.70;85.10;;;;;;5099466;28;19981;-60
2024/03/24 05:53:49;;;;;;;;;;;5.70;84.90;;;;;;5078760;28;19972;-59
2024/03/24 05:56:21;;;;;;;;;;;5.70;84.90;;;;;;5101853;28;19924;-59
2024/03/24 05:58:55;;;;;;;;;;;5.70;84.80;;;;;;5096260;28;19951;-59
2024/03/24 06:01:28;;;;;;;;;;;5.70;84.60;;;;;;5100834;28;20375;-60
2024/03/24 06:04:02;;;;;;;;;;;5.80;84.50;;;;;;5096556;28;19924;-59
2024/03/24 06:06:34;;;;;;;;;;;5.80;84.40;;;;;;5099708;28;19928;-61
2024/03/24 06:09:09;;;;;;;;;;;5.80;84.40;;;;;;5098576;28;19931;-60
2024/03/24 06:11:41;;;;;;;;;;;5.80;84.30;;;;;;5099942;28;19974;-59
2024/03/24 06:14:15;;;;;;;;;;;5.80;84.30;;;;;;5098377;28;20362;-61
2024/03/24 06:16:48;;;;;;;;;;;5.80;84.40;;;;;;5098906;28;19924;-60
2024/03/24 06:22:48;;;;;;;;;;;5.80;84.20;;;;;;5043424;28;19929;-59
2024/03/24 06:25:20;;;;;;;;;;;5.80;84.10;;;;;;5051361;28;19928;-60
2024/03/24 06:27:53;;;;;;;;;;;5.70;83.90;;;;;;5038852;28;19936;-59
2024/03/24 06:30:26;;;;;;;;;;;5.80;83.90;;;;;;5050347;28;19986;-59
2024/03/24 06:32:53;;;;;;;;;;;5.70;83.90;;;;;;5049009;28;20508;-60
2024/03/24 06:35:26;;;;;;;;;;;5.80;83.70;;;;;;5049969;28;19936;-60
2024/03/24 06:37:53;;;;;;;;;;;5.80;83.60;;;;;;5051891;28;19925;-60
2024/03/24 06:40:25;;;;;;;;;;;5.80;83.40;;;;;;5041787;28;19924;-60
2024/03/24 06:43:02;;;;;;;;;;;5.80;83.40;;;;;;5041680;28;19928;-60
2024/03/24 06:45:35;;;;;;;;;;;5.80;83.30;;;;;;5049078;28;19929;-60
2024/03/24 06:48:09;;;;;;;;;;;5.80;83.20;;;;;;5045319;28;19972;-60
2024/03/24 06:50:41;;;;;;;;;;;5.80;83.10;;;;;;5049540;28;20384;-60
2024/03/24 06:53:14;;;;;;;;;;;5.70;82.90;;;;;;5047182;28;20448;-60
2024/03/24 06:55:47;;;;;;;;;;;5.70;83.00;;;;;;5042513;28;19937;-61
2024/03/24 06:58:20;;;;;;;;;;;5.70;82.90;;;;;;5048811;28;19964;-60
2024/03/24 07:00:53;;;;;;;;;;;5.70;82.90;;;;;;5043596;28;19940;-60
2024/03/24 07:03:32;;;;;;;;;;;5.80;82.80;;;;;;5045818;28;19935;-59
2024/03/24 07:06:13;;;;;;;;;;;5.80;82.60;;;;;;5049142;28;20176;-59
2024/03/24 07:08:46;;;;;;;;;;;5.80;82.50;;;;;;5046982;28;19929;-60
2024/03/24 07:11:18;;;;;;;;;;;5.80;82.30;;;;;;5044062;28;19928;-60
2024/03/24 07:13:51;;;;;;;;;;;5.80;82.30;;;;;;5048256;28;19948;-59
2024/03/24 07:16:25;;;;;;;;;;;5.80;82.30;;;;;;5043529;28;19928;-60
2024/03/24 07:18:54;;;;;;;;;;;5.80;82.10;;;;;;5045979;28;19928;-60
2024/03/24 07:21:27;;;;;;;;;;;5.80;82.00;;;;;;5044947;28;19994;-61
2024/03/24 07:24:00;;;;;;;;;;;5.80;81.90;;;;;;5042237;28;20007;-60
2024/03/24 07:26:33;;;;;;;;;;;5.80;81.80;;;;;;5047951;28;19928;-59
2024/03/24 07:29:06;;;;;;;;;;;5.80;81.90;;;;;;5052853;28;19978;-59
2024/03/24 07:31:39;;;;;;;;;;;5.80;81.80;;;;;;5040532;28;19924;-59
2024/03/24 07:34:13;;;;;;;;;;;5.80;81.80;;;;;;5050761;28;19928;-63
2024/03/24 07:37:14;;;;;;;;;;;5.80;81.90;;;;;;5046046;28;20019;-65
2024/03/24 07:39:55;;;;;;;;;;;5.80;81.80;;;;;;5045875;28;20469;-64
2024/03/24 07:42:27;;;;;;;;;;;5.80;81.80;;;;;;5045612;28;19936;-65
2024/03/24 07:45:00;;;;;;;;;;;5.80;81.90;;;;;;5046507;28;20423;-64
2024/03/24 07:51:01;;;;;;;;;;;5.80;82.00;;;;;;4961447;28;19950;-64
2024/03/24 07:53:34;;;;;;;;;;;5.80;82.20;;;;;;5038089;28;19936;-64
2024/03/24 07:56:07;;;;;;;;;;;5.90;82.20;;;;;;5048405;28;19936;-64
2024/03/24 07:58:39;;;;;;;;;;;5.90;82.20;;;;;;5041976;28;19929;-65
2024/03/24 08:01:12;;;;;;;;;;;5.90;82.30;;;;;;5043373;28;20849;-64
2024/03/24 08:03:45;;;;;;;;;;;5.90;82.10;;;;;;5050881;28;20363;-64
2024/03/24 08:06:19;;;;;;;;;;;5.90;82.10;;;;;;5053534;28;19954;-64
2024/03/24 08:08:52;;;;;;;;;;;5.90;82.10;;;;;;5044737;28;19947;-64
2024/03/24 08:11:26;;;;;;;;;;;5.90;82.20;;;;;;5041466;28;20026;-65
2024/03/24 08:13:58;;;;;;;;;;;5.90;82.10;;;;;;5046496;28;19968;-64
2024/03/24 08:16:31;;;;;;;;;;;5.90;82.10;;;;;;5045599;28;20027;-64
2024/03/24 08:19:04;;;;;;;;;;;5.90;82.20;;;;;;5046368;28;21392;-63
2024/03/24 08:21:38;;;;;;;;;;;5.90;82.10;;;;;;5045144;28;20011;-64
2024/03/24 08:24:12;;;;;;;;;;;6.00;82.10;;;;;;5045223;28;19924;-65
2024/03/24 08:26:46;;;;;;;;;;;5.90;82.00;;;;;;5046564;28;19929;-64
2024/03/24 08:29:18;;;;;;;;;;;5.90;82.20;;;;;;5047173;28;20365;-65
2024/03/24 08:31:51;;;;;;;;;;;6.00;82.30;;;;;;5048394;28;20011;-64
2024/03/24 08:34:23;;;;;;;;;;;6.00;82.20;;;;;;5053130;28;19925;-64
2024/03/24 08:36:57;;;;;;;;;;;6.10;82.30;;;;;;5046595;28;19932;-65
2024/03/24 08:39:30;;;;;;;;;;;6.10;82.30;;;;;;5051159;28;20004;-65
2024/03/24 08:42:03;;;;;;;;;;;6.10;82.20;;;;;;5038731;28;19935;-60
2024/03/24 08:44:36;;;;;;;;;;;6.10;82.20;;;;;;5044021;28;19928;-61
2024/03/24 08:47:09;;;;;;;;;;;6.10;82.20;;;;;;5041705;28;20021;-60
2024/03/24 08:49:41;;;;;;;;;;;6.20;82.20;;;;;;5044680;28;19974;-60
2024/03/24 08:52:09;;;;;;;;;;;6.30;82.10;;;;;;5048575;28;19932;-60
2024/03/24 08:54:41;;;;;;;;;;;6.40;82.00;;;;;;5053089;28;20056;-61
2024/03/24 08:57:14;;;;;;;;;;;6.50;82.00;;;;;;5091791;28;20383;-61
2024/03/24 08:59:46;;;;;;;;;;;6.50;81.90;;;;;;5085348;28;19959;-61
2024/03/24 09:02:19;;;;;;;;;;;6.50;82.10;;;;;;5092318;28;20023;-62
2024/03/24 09:04:53;;;;;;;;;;;6.60;82.10;;;;;;5092238;28;19928;-60
2024/03/24 09:07:29;;;;;;;;;;;6.60;82.20;;;;;;5088309;28;19924;-62
2024/03/24 09:10:01;;;;;;;;;;;6.60;82.00;;;;;;5085865;28;20467;-62
2024/03/24 09:12:36;;;;;;;;;;;6.50;82.00;;;;;;5090690;28;19939;-62
2024/03/24 09:15:08;;;;;;;;;;;6.50;82.10;;;;;;5088899;28;19949;-62
2024/03/24 09:17:41;;;;;;;;;;;6.50;82.30;;;;;;5087605;28;19927;-62
2024/03/24 09:20:15;;;;;;;;;;;6.60;82.50;;;;;;5094746;28;19935;-62
2024/03/24 09:22:49;;;;;;;;;;;6.70;82.60;;;;;;5096071;28;20456;-61
2024/03/24 09:25:22;;;;;;;;;;;6.80;82.50;;;;;;5092489;28;19943;-61
2024/03/24 09:27:55;;;;;;;;;;;6.90;82.30;;;;;;5086116;28;19930;-61
2024/03/24 09:30:27;;;;;;;;;;;6.90;82.40;;;;;;5085907;28;19942;-61
2024/03/24 09:33:00;;;;;;;;;;;7.00;82.50;;;;;;5092623;28;19959;-61
2024/03/24 09:35:32;;;;;;;;;;;7.00;82.50;;;;;;5083043;28;19959;-62
2024/03/24 09:38:07;;;;;;;;;;;7.00;82.60;;;;;;5086590;28;19932;-62
2024/03/24 09:40:39;;;;;;;;;;;6.90;82.50;;;;;;5093378;28;19973;-61
2024/03/24 09:43:12;;;;;;;;;;;6.80;82.70;;;;;;5086508;28;19999;-60
2024/03/24 09:45:44;;;;;;;;;;;6.90;82.80;;;;;;5093687;28;20015;-62
2024/03/24 09:48:12;;;;;;;;;;;6.90;82.70;;;;;;5090738;28;19931;-61
2024/03/24 09:50:44;;;;;;;;;;;6.90;82.60;;;;;;5094093;28;19924;-61
2024/03/24 09:53:20;;;;;;;;;;;6.90;82.60;;;;;;5087243;28;19977;-72
2024/03/24 09:55:54;;;;;;;;;;;6.90;82.70;;;;;;5087858;28;19928;-72
2024/03/24 09:58:27;;;;;;;;;;;6.90;82.70;;;;;;5096603;28;19930;-75
2024/03/24 10:00:59;;;;;;;;;;;6.90;82.70;;;;;;5088383;28;19939;-73
2024/03/24 10:03:32;;;;;;;;;;;6.90;82.50;;;;;;5057511;28;20293;-73
2024/03/24 10:06:06;;;;;;;;;;;7.00;82.40;;;;;;5087838;28;19951;-72
2024/03/24 10:08:40;;;;;;;;;;;7.00;82.60;;;;;;5085925;28;19932;-74
2024/03/24 10:11:34;;;;;;;;;;;7.00;82.60;;;;;;5073340;28;19975;-72
2024/03/24 10:14:08;;;;;;;;;;;7.00;82.60;;;;;;5087541;28;20431;-72
2024/03/24 10:16:40;;;;;;;;;;;7.00;82.50;;;;;;5091416;28;19935;-72
2024/03/24 10:19:14;;;;;;;;;;;7.00;82.90;;;;;;5088234;28;19924;-73
2024/03/24 10:21:46;;;;;;;;;;;7.00;83.10;;;;;;5082201;28;19927;-74
2024/03/24 10:24:27;;;;;;;;;;;7.00;83.00;;;;;;5089711;28;19935;-75
2024/03/24 10:27:00;;;;;;;;;;;7.00;83.30;;;;;;5087864;28;20019;-73
2024/03/24 10:29:33;;;;;;;;;;;7.10;83.40;;;;;;5094786;28;19946;-76
2024/03/24 10:32:07;;;;;;;;;;;7.00;83.20;;;;;;5089780;28;19928;-74
2024/03/24 10:34:40;;;;;;;;;;;7.00;83.10;;;;;;5092508;28;19924;-73
2024/03/24 10:37:12;;;;;;;;;;;7.10;83.60;;;;;;5095557;28;20357;-74
2024/03/24 10:39:46;;;;;;;;;;;7.10;83.60;;;;;;5086836;28;20036;-74
2024/03/24 10:42:19;;;;;;;;;;;7.10;83.60;;;;;;5097696;28;19923;-71
2024/03/24 10:44:54;;;;;;;;;;;7.20;83.60;;;;;;5088876;28;20001;-75
2024/03/24 10:47:26;;;;;;;;;;;7.20;83.60;;;;;;5089341;28;20386;-73
2024/03/24 10:49:59;;;;;;;;;;;7.20;83.70;;;;;;5093107;28;19942;-74
2024/03/24 10:52:33;;;;;;;;;;;7.10;83.70;;;;;;5099365;28;19931;-73
2024/03/24 10:55:08;;;;;;;;;;;7.20;84.20;;;;;;5093130;28;19927;-73
2024/03/24 10:57:41;;;;;;;;;;;7.30;84.30;;;;;;5091304;28;20022;-75
2024/03/24 11:00:14;;;;;;;;;;;7.30;84.40;;;;;;5096113;28;19977;-74
2024/03/24 11:02:47;;;;;;;;;;;7.40;84.60;;;;;;5096132;28;20026;-61
2024/03/24 11:05:20;;;;;;;;;;;7.50;84.40;;;;;;5093124;28;20531;-59
2024/03/24 11:07:52;;;;;;;;;;;7.50;84.20;;;;;;5091181;28;19981;-60
2024/03/24 11:10:27;;;;;;;;;;;7.60;84.20;;;;;;5095776;28;19924;-60
2024/03/24 11:12:59;;;;;;;;;;;7.70;84.20;;;;;;5095569;28;20271;-61
2024/03/24 11:15:34;;;;;;;;;;;7.70;84.20;;;;;;5090559;28;19928;-60
2024/03/24 11:18:16;;;;;;;;;;;7.80;84.00;;;;;;5091362;28;19924;-61
2024/03/24 11:20:52;;;;;;;;;;;7.80;83.90;;;;;;5089626;28;19930;-61
2024/03/24 11:23:32;;;;;;;;;;;7.90;83.80;;;;;;5092443;28;19928;-60
2024/03/24 11:26:07;;;;;;;;;;;8.00;83.80;;;;;;5090824;28;19923;-61
2024/03/24 11:28:40;;;;;;;;;;;8.10;83.70;;;;;;5092941;28;20002;-59
2024/03/24 11:31:16;;;;;;;;;;;8.10;83.70;;;;;;5086894;28;19982;-61
2024/03/24 11:34:15;;;;;;;;;;;8.20;83.60;;;;;;5087794;28;19934;-59
2024/03/24 11:36:50;;;;;;;;;;;8.40;83.60;;;;;;5089867;28;19965;-60
2024/03/24 11:39:22;;;;;;;;;;;8.60;83.40;;;;;;5091467;28;19928;-60
2024/03/24 11:42:06;;;;;;;;;;;8.80;83.00;;;;;;5085736;28;20016;-61
2024/03/24 11:44:38;;;;;;;;;;;8.90;82.90;;;;;;5088500;28;20019;-60
2024/03/24 11:47:05;;;;;;;;;;;8.80;82.80;;;;;;5089717;28;19930;-61
2024/03/24 11:49:45;;;;;;;;;;;8.80;82.80;;;;;;5085831;28;20006;-60
2024/03/24 11:52:21;;;;;;;;;;;8.70;82.60;;;;;;5091539;28;20469;-60
2024/03/24 11:54:54;;;;;;;;;;;8.50;82.60;;;;;;5093675;28;19931;-61
2024/03/24 11:57:29;;;;;;;;;;;8.40;82.70;;;;;;5097127;28;19932;-61
2024/03/24 12:00:02;;;;;;;;;;;8.40;83.00;;;;;;5094610;28;19928;-61
2024/03/24 12:02:39;;;;;;;;;;;8.40;83.00;;;;;;5097961;28;20014;-61
2024/03/24 12:05:11;;;;;;;;;;;8.20;82.50;;;;;;5090646;28;19932;-61
2024/03/24 12:07:46;;;;;;;;;;;8.10;81.80;;;;;;5090082;28;19924;-60
2024/03/24 12:31:53;;;;;;;;;;;7.40;80.90;;;;;;5097031;28;20003;-61
2024/03/24 12:34:26;;;;;;;;;;;7.30;81.10;;;;;;5092612;28;20664;-59
2024/03/24 12:37:14;;;;;;;;;;;7.40;81.10;;;;;;5083307;28;25223;-59
2024/03/24 12:39:54;;;;;;;;;;;7.50;81.20;;;;;;5091849;28;19939;-60
2024/03/24 12:42:27;;;;;;;;;;;7.60;81.60;;;;;;5087759;28;19981;-61
2024/03/24 12:45:05;;;;;;;;;;;7.70;81.30;;;;;;5083055;28;19924;-60
2024/03/24 12:47:40;;;;;;;;;;;7.70;81.40;;;;;;5088596;28;20415;-61
2024/03/24 12:50:25;;;;;;;;;;;7.70;81.80;;;;;;5089787;28;20019;-61
2024/03/24 12:53:02;;;;;;;;;;;7.80;82.10;;;;;;5067094;28;20207;-61
2024/03/24 12:55:36;;;;;;;;;;;7.80;82.10;;;;;;5087276;28;20300;-60
2024/03/24 12:58:12;;;;;;;;;;;7.90;82.40;;;;;;5087742;28;19928;-60
2024/03/24 13:00:45;;;;;;;;;;;7.90;82.40;;;;;;5090555;28;20008;-59
2024/03/24 13:03:20;;;;;;;;;;;8.00;82.60;;;;;;5090324;28;19943;-61
2024/03/24 13:05:52;;;;;;;;;;;8.10;82.80;;;;;;5085502;28;19974;-60
2024/03/24 13:08:26;;;;;;;;;;;8.10;82.70;;;;;;5092809;28;20004;-61
2024/03/24 13:10:58;;;;;;;;;;;8.10;82.70;;;;;;5084743;28;19925;-61
2024/03/24 13:13:33;;;;;;;;;;;8.20;82.60;;;;;;5084759;28;20378;-59
2024/03/24 13:16:07;;;;;;;;;;;8.40;82.60;;;;;;5083543;28;19932;-59
2024/03/24 13:18:44;;;;;;;;;;;8.50;82.20;;;;;;5091736;28;19927;-60
2024/03/24 13:21:20;;;;;;;;;;;8.50;81.80;;;;;;5089242;28;19925;-60
2024/03/24 13:23:54;;;;;;;;;;;8.60;81.50;;;;;;5091584;28;20466;-60
2024/03/24 13:26:27;;;;;;;;;;;8.60;81.40;;;;;;5094271;28;19934;-62
2024/03/24 13:29:00;;;;;;;;;;;8.70;81.20;;;;;;5095732;28;20018;-60
2024/03/24 13:31:32;;;;;;;;;;;8.80;81.00;;;;;;5094432;28;19963;-59
2024/03/24 13:34:06;;;;;;;;;;;8.90;81.00;;;;;;5096836;28;20023;-62
2024/03/24 13:36:44;;;;;;;;;;;9.00;80.70;;;;;;5096899;28;19956;-62
2024/03/24 13:39:23;;;;;;;;;;;9.10;80.70;;;;;;5094884;28;19932;-61
2024/03/24 13:42:02;;;;;;;;;;;9.20;80.30;;;;;;5089249;28;19932;-61
2024/03/24 13:44:41;;;;;;;;;;;9.20;80.00;;;;;;5086287;28;19946;-60
2024/03/24 13:47:15;;;;;;;;;;;9.40;79.90;;;;;;5087653;28;20015;-60
2024/03/24 13:49:50;;;;;;;;;;;9.40;79.60;;;;;;5081519;28;19932;-60
2024/03/24 13:52:22;;;;;;;;;;;9.50;79.70;;;;;;5084034;28;19931;-59
2024/03/24 13:54:49;;;;;;;;;;;9.50;79.70;;;;;;5075240;28;20068;-59
2024/03/24 13:57:21;;;;;;;;;;;9.40;79.90;;;;;;5097525;28;20446;-61
2024/03/24 13:59:54;;;;;;;;;;;9.40;80.20;;;;;;5094605;28;19923;-60
2024/03/24 14:02:26;;;;;;;;;;;9.30;80.30;;;;;;5097383;28;19928;-59
2024/03/24 14:05:00;;;;;;;;;;;9.30;80.50;;;;;;5098928;28;20453;-61
2024/03/24 14:07:33;;;;;;;;;;;9.20;80.60;;;;;;5098546;28;19936;-61
2024/03/24 14:10:07;;;;;;;;;;;9.10;81.00;;;;;;5100326;28;20020;-60
2024/03/24 14:12:45;;;;;;;;;;;9.00;81.50;;;;;;5100007;28;20853;-59
2024/03/24 14:15:20;;;;;;;;;;;8.90;81.80;;;;;;5098850;28;20007;-61
2024/03/24 14:17:56;;;;;;;;;;;9.00;81.80;;;;;;5100787;28;19928;-61
2024/03/24 14:20:32;;;;;;;;;;;8.90;81.90;;;;;;5099660;28;19950;-60
2024/03/24 14:23:08;;;;;;;;;;;8.90;82.00;;;;;;5088624;28;19932;-59
2024/03/24 14:25:41;;;;;;;;;;;8.90;81.90;;;;;;5096183;28;19928;-60
2024/03/24 14:28:13;;;;;;;;;;;8.80;82.20;;;;;;5101051;28;20248;-61
2024/03/24 14:30:46;;;;;;;;;;;8.60;82.40;;;;;;5100151;28;19924;-60
2024/03/24 14:33:18;;;;;;;;;;;8.60;82.50;;;;;;5082510;28;19932;-59
2024/03/24 14:35:57;;;;;;;;;;;8.50;82.40;;;;;;5099791;28;19924;-61
2024/03/24 14:38:38;;;;;;;;;;;8.40;82.20;;;;;;5097624;28;19930;-60
2024/03/24 14:41:20;;;;;;;;;;;8.30;82.10;;;;;;5094240;28;20289;-59
2024/03/24 14:44:00;;;;;;;;;;;8.20;80.70;;;;;;5098265;28;19928;-59
2024/03/24 14:46:40;;;;;;;;;;;8.00;80.60;;;;;;5101215;28;19931;-59
2024/03/24 14:49:12;;;;;;;;;;;7.90;80.50;;;;;;5098823;28;20019;-59
2024/03/24 14:51:47;;;;;;;;;;;7.90;80.70;;;;;;5097715;28;19924;-61
2024/03/24 14:54:19;;;;;;;;;;;7.80;80.60;;;;;;5094536;28;19935;-60
2024/03/24 14:56:52;;;;;;;;;;;7.90;80.90;;;;;;5097630;28;19935;-59
2024/03/24 14:59:24;;;;;;;;;;;8.00;80.70;;;;;;5096481;28;19924;-59
2024/03/24 15:01:57;;;;;;;;;;;8.00;80.60;;;;;;5098456;28;19928;-61
2024/03/24 15:04:29;;;;;;;;;;;7.90;80.80;;;;;;5098377;28;19924;-60
2024/03/24 15:07:04;;;;;;;;;;;7.90;81.00;;;;;;5098080;28;19963;-62
2024/03/24 15:09:36;;;;;;;;;;;7.90;81.10;;;;;;5093579;28;19932;-60
2024/03/24 15:12:09;;;;;;;;;;;7.90;81.20;;;;;;5096103;28;19924;-61
2024/03/24 15:14:41;;;;;;;;;;;8.00;81.40;;;;;;5098791;28;19932;-61
2024/03/24 15:17:14;;;;;;;;;;;8.00;81.20;;;;;;5082700;28;20358;-62
2024/03/24 15:19:40;;;;;;;;;;;7.90;81.40;;;;;;5098091;28;19928;-61
2024/03/24 15:22:15;;;;;;;;;;;7.90;81.40;;;;;;5099774;28;19931;-60
2024/03/24 15:24:48;;;;;;;;;;;7.90;81.40;;;;;;5092247;28;19928;-60
2024/03/24 15:27:22;;;;;;;;;;;7.80;81.40;;;;;;5100605;28;19924;-61
2024/03/24 15:29:54;;;;;;;;;;;7.80;81.70;;;;;;5096183;28;20023;-60
2024/03/24 15:32:27;;;;;;;;;;;7.80;81.80;;;;;;5094034;28;19928;-60
2024/03/24 15:35:00;;;;;;;;;;;7.80;82.00;;;;;;5087160;28;20039;-60
2024/03/24 15:37:35;;;;;;;;;;;7.90;82.20;;;;;;5094419;28;19923;-62